Time;durP1;ratioP1;P1;durP2;ratioP2;P2;SDS_P1;SDS_P2;PMS_P1;PMS_P2;Temp;Humidity;BMP_temperature;BMP_pressure;BME280_temperature;BME280_humidity;BME280_pressure;Samples;Min_cycle;Max_cycle;Signal;HPM_P1;HPM_P2
2021/04/13 00:01:33;;;;;;;3.20;1.70;;;3.10;99.90;;;;;;5011330;28;20684;-54
2021/04/13 00:04:11;;;;;;;3.47;1.80;;;3.10;99.90;;;;;;5004454;28;20486;-53
2021/04/13 00:06:44;;;;;;;4.93;2.00;;;3.10;99.90;;;;;;5010672;28;21024;-52
2021/04/13 00:09:17;;;;;;;4.63;1.70;;;3.00;99.90;;;;;;5010601;28;20697;-51
2021/04/13 00:11:48;;;;;;;6.53;1.87;;;3.00;99.90;;;;;;5009844;28;20524;-52
2021/04/13 00:14:19;;;;;;;3.03;1.70;;;3.10;99.90;;;;;;5010234;28;20525;-53
2021/04/13 00:16:48;;;;;;;5.00;1.97;;;3.00;99.90;;;;;;5010078;28;20992;-52
2021/04/13 00:19:20;;;;;;;2.70;1.70;;;3.00;99.90;;;;;;5010342;28;21053;-53
2021/04/13 00:21:47;;;;;;;3.67;1.90;;;3.00;99.90;;;;;;5009696;28;20511;-53
2021/04/13 00:24:20;;;;;;;3.23;1.87;;;3.00;99.90;;;;;;5028664;28;20469;-51
2021/04/13 00:26:51;;;;;;;7.33;2.20;;;3.10;99.90;;;;;;4990484;28;20549;-52
2021/04/13 00:29:22;;;;;;;3.20;1.90;;;3.00;99.90;;;;;;4990850;28;20478;-55
2021/04/13 00:31:55;;;;;;;4.90;1.70;;;3.00;99.90;;;;;;4989669;28;20900;-52
2021/04/13 00:34:30;;;;;;;3.87;2.00;;;3.00;99.90;;;;;;4990958;28;20935;-53
2021/04/13 00:37:29;;;;;;;5.73;2.07;;;3.00;99.90;;;;;;4990396;28;21159;-53
2021/04/13 00:40:19;;;;;;;4.57;1.70;;;2.90;99.90;;;;;;4990470;28;21037;-54
2021/04/13 00:42:48;;;;;;;3.93;1.80;;;3.00;99.90;;;;;;4990425;28;20558;-53
2021/04/13 00:45:23;;;;;;;4.53;1.97;;;3.00;99.90;;;;;;4997025;28;20834;-52
2021/04/13 00:47:53;;;;;;;4.40;2.17;;;3.00;99.90;;;;;;5010042;28;20511;-51
2021/04/13 00:50:29;;;;;;;4.17;2.03;;;3.00;99.90;;;;;;5024882;28;20528;-51
2021/04/13 00:52:59;;;;;;;4.77;2.00;;;3.00;99.90;;;;;;5009697;28;20550;-52
2021/04/13 00:55:31;;;;;;;3.33;2.27;;;3.00;99.90;;;;;;5024869;28;20482;-51
2021/04/13 00:58:07;;;;;;;4.73;2.13;;;3.00;99.90;;;;;;5009850;28;20476;-55
2021/04/13 01:00:43;;;;;;;4.53;2.00;;;2.90;99.90;;;;;;5012726;28;21035;-50
2021/04/13 01:03:14;;;;;;;5.53;2.10;;;2.90;99.90;;;;;;5009443;28;20476;-53
2021/04/13 01:05:45;;;;;;;5.17;2.00;;;2.90;99.90;;;;;;5008590;28;20509;-51
2021/04/13 01:08:24;;;;;;;3.70;2.40;;;2.90;99.90;;;;;;5015896;28;20556;-54
2021/04/13 01:10:54;;;;;;;5.33;2.33;;;2.90;99.90;;;;;;5028166;28;20480;-54
2021/04/13 01:13:31;;;;;;;5.77;2.23;;;2.80;99.90;;;;;;5028704;28;20492;-54
2021/04/13 01:15:58;;;;;;;8.37;2.50;;;2.80;99.90;;;;;;5028468;28;20526;-51
2021/04/13 01:18:33;;;;;;;5.00;2.20;;;2.90;99.90;;;;;;5029119;28;21012;-54
2021/04/13 01:21:28;;;;;;;4.33;2.10;;;2.80;99.90;;;;;;5020615;28;20557;-52
2021/04/13 01:24:07;;;;;;;2.90;1.90;;;2.90;99.90;;;;;;5014627;28;20564;-52
2021/04/13 01:26:38;;;;;;;5.13;2.30;;;2.90;99.90;;;;;;5010256;28;20977;-55
2021/04/13 01:29:06;;;;;;;4.33;2.37;;;2.80;99.90;;;;;;5008602;28;20568;-52
2021/04/13 01:31:45;;;;;;;5.67;2.30;;;2.80;99.90;;;;;;5022641;28;20900;-51
2021/04/13 01:34:21;;;;;;;4.53;2.47;;;2.90;99.90;;;;;;5008847;28;21085;-54
2021/04/13 01:37:05;;;;;;;3.63;2.10;;;2.80;99.90;;;;;;5021030;28;20475;-53
2021/04/13 01:39:42;;;;;;;4.47;2.40;;;2.80;99.90;;;;;;5029004;28;20878;-55
2021/04/13 01:42:11;;;;;;;5.40;2.33;;;2.80;99.90;;;;;;5028151;28;20983;-51
2021/04/13 01:44:41;;;;;;;6.40;2.40;;;2.70;99.90;;;;;;5028558;28;20486;-52
2021/04/13 01:47:12;;;;;;;3.90;2.23;;;2.80;99.90;;;;;;5013677;28;20482;-53
2021/04/13 01:49:46;;;;;;;3.37;2.30;;;2.70;99.90;;;;;;5008370;28;20543;-53
2021/04/13 01:52:25;;;;;;;7.83;2.27;;;2.70;99.90;;;;;;5008350;28;20514;-52
2021/04/13 01:54:53;;;;;;;3.63;2.33;;;2.70;99.90;;;;;;5006822;28;20497;-51
2021/04/13 01:57:34;;;;;;;4.20;2.60;;;2.70;99.90;;;;;;5006324;28;20484;-52
2021/04/13 02:00:13;;;;;;;4.77;2.77;;;2.70;99.90;;;;;;5010442;28;20522;-51
2021/04/13 02:02:52;;;;;;;4.03;2.20;;;2.70;99.90;;;;;;5007074;28;20473;-55
2021/04/13 02:05:30;;;;;;;5.53;2.50;;;2.60;99.90;;;;;;5008143;28;22727;-51
2021/04/13 02:08:08;;;;;;;4.03;2.60;;;2.60;99.90;;;;;;5008028;28;20473;-52
2021/04/13 02:10:43;;;;;;;3.33;2.43;;;2.60;99.90;;;;;;4988676;28;20494;-53
2021/04/13 02:13:16;;;;;;;4.00;2.20;;;2.70;99.90;;;;;;4988610;28;20479;-52
2021/04/13 02:15:53;;;;;;;4.47;2.07;;;2.60;99.90;;;;;;5012452;28;20582;-55
2021/04/13 02:18:28;;;;;;;4.90;2.13;;;2.60;99.90;;;;;;5028147;28;20507;-55
2021/04/13 02:20:58;;;;;;;4.07;2.47;;;2.60;99.90;;;;;;5027127;28;20498;-52
2021/04/13 02:23:28;;;;;;;3.77;2.20;;;2.60;99.90;;;;;;5027687;28;20479;-53
2021/04/13 02:25:59;;;;;;;5.97;2.63;;;2.60;99.90;;;;;;5027256;28;20919;-51
2021/04/13 02:28:28;;;;;;;6.33;2.30;;;2.50;99.90;;;;;;5027948;28;20465;-51
2021/04/13 02:30:58;;;;;;;6.57;2.30;;;2.50;99.90;;;;;;5021169;28;21052;-54
2021/04/13 02:33:32;;;;;;;3.90;2.20;;;2.50;99.90;;;;;;5008212;28;20480;-51
2021/04/13 02:36:12;;;;;;;3.77;2.30;;;2.60;99.90;;;;;;5006430;28;20480;-52
2021/04/13 02:38:43;;;;;;;5.63;2.03;;;2.60;99.90;;;;;;5007717;28;20471;-55
2021/04/13 02:41:19;;;;;;;5.00;2.23;;;2.60;99.90;;;;;;5014748;28;20487;-52
2021/04/13 02:43:51;;;;;;;2.70;2.20;;;2.60;99.90;;;;;;5027593;28;20480;-51
2021/04/13 02:46:22;;;;;;;4.17;2.27;;;2.60;99.90;;;;;;5027255;28;20503;-53
2021/04/13 02:49:01;;;;;;;5.10;2.10;;;2.60;99.90;;;;;;5014214;28;20513;-53
2021/04/13 02:51:32;;;;;;;5.80;2.40;;;2.60;99.90;;;;;;5007573;28;21048;-53
2021/04/13 02:54:01;;;;;;;6.37;2.33;;;2.60;99.90;;;;;;5006199;28;20496;-50
2021/04/13 02:56:33;;;;;;;3.07;2.00;;;2.60;99.90;;;;;;5005613;28;20483;-54
2021/04/13 02:59:18;;;;;;;5.10;2.23;;;2.60;99.90;;;;;;5006507;28;21061;-54
2021/04/13 03:01:52;;;;;;;4.33;2.27;;;2.60;99.90;;;;;;4998969;28;20485;-52
2021/04/13 03:04:20;;;;;;;5.67;2.57;;;2.60;99.90;;;;;;5021702;28;20578;-53
2021/04/13 03:06:52;;;;;;;6.73;2.30;;;2.60;99.90;;;;;;5027130;28;20491;-52
2021/04/13 03:09:26;;;;;;;6.47;2.40;;;2.50;99.90;;;;;;5026273;28;20508;-51
2021/04/13 03:11:56;;;;;;;7.27;2.90;;;2.50;99.90;;;;;;5027216;28;20510;-54
2021/04/13 03:14:24;;;;;;;6.13;2.30;;;2.50;99.90;;;;;;5027395;28;21027;-55
2021/04/13 03:16:56;;;;;;;6.93;2.40;;;2.50;99.90;;;;;;5026575;28;20489;-51
2021/04/13 03:19:28;;;;;;;3.43;2.40;;;2.40;99.90;;;;;;5027131;28;20884;-51
2021/04/13 03:22:02;;;;;;;4.67;2.30;;;2.40;99.90;;;;;;5026839;28;20541;-52
2021/04/13 03:24:35;;;;;;;5.23;2.63;;;2.40;99.90;;;;;;5027280;28;20511;-54
2021/04/13 03:27:06;;;;;;;5.53;2.90;;;2.40;99.90;;;;;;5015862;28;20475;-53
2021/04/13 03:29:44;;;;;;;5.27;2.60;;;2.40;99.90;;;;;;5007980;28;20977;-51
2021/04/13 03:32:14;;;;;;;6.25;3.22;;;2.40;99.90;;;;;;5005298;28;20570;-52
2021/04/13 03:34:43;;;;;;;5.57;2.80;;;2.40;99.90;;;;;;5009718;28;20312;-50
2021/04/13 03:37:12;;;;;;;7.53;2.73;;;2.40;99.90;;;;;;5023452;28;20570;-55
2021/04/13 03:39:44;;;;;;;8.37;2.80;;;2.40;99.90;;;;;;5030870;28;20508;-51
2021/04/13 03:42:17;;;;;;;3.80;2.70;;;2.40;99.90;;;;;;5030635;28;20507;-51
2021/04/13 03:44:46;;;;;;;7.70;2.70;;;2.40;99.90;;;;;;5030776;28;20531;-53
2021/04/13 03:47:17;;;;;;;6.73;2.83;;;2.30;99.90;;;;;;5029323;28;21026;-53
2021/04/13 03:49:47;;;;;;;6.17;2.87;;;2.40;99.90;;;;;;5025512;28;20546;-54
2021/04/13 03:52:20;;;;;;;7.27;2.73;;;2.40;99.90;;;;;;5010665;28;20501;-52
2021/04/13 03:54:48;;;;;;;6.53;2.60;;;2.40;99.90;;;;;;5000683;28;20540;-53
2021/04/13 03:57:29;;;;;;;5.30;2.07;;;2.30;99.90;;;;;;5009880;28;20474;-51
2021/04/13 03:59:59;;;;;;;5.00;2.30;;;2.30;99.90;;;;;;5004238;28;20473;-53
2021/04/13 04:02:26;;;;;;;5.00;2.60;;;2.30;99.90;;;;;;5010145;28;20568;-51
2021/04/13 04:05:10;;;;;;;4.10;2.30;;;2.30;99.90;;;;;;5010850;28;20783;-52
2021/04/13 04:07:44;;;;;;;4.20;2.53;;;2.30;99.90;;;;;;5009443;28;20489;-51
2021/04/13 04:10:47;;;;;;;5.43;2.30;;;2.40;99.90;;;;;;5006024;28;20469;-50
2021/04/13 04:13:32;;;;;;;7.27;2.63;;;2.40;99.90;;;;;;5012284;28;20495;-51
2021/04/13 04:16:14;;;;;;;6.20;2.40;;;2.40;99.90;;;;;;5029151;28;20471;-51
2021/04/13 04:18:45;;;;;;;8.17;2.97;;;2.40;99.90;;;;;;5030213;28;20872;-51
2021/04/13 04:21:33;;;;;;;4.07;2.60;;;2.40;99.90;;;;;;5030090;28;20533;-52
2021/04/13 04:24:07;;;;;;;6.10;2.93;;;2.40;99.90;;;;;;5030713;28;20477;-53
2021/04/13 04:26:46;;;;;;;7.60;2.97;;;2.30;99.90;;;;;;5023688;28;21023;-54
2021/04/13 04:29:19;;;;;;;8.27;3.10;;;2.30;99.90;;;;;;5010359;28;20985;-53
2021/04/13 04:31:48;;;;;;;6.13;3.07;;;2.30;99.90;;;;;;5009190;28;20489;-53
2021/04/13 04:34:51;;;;;;;5.30;3.00;;;2.30;99.90;;;;;;5010131;28;20512;-52
2021/04/13 04:37:32;;;;;;;5.93;2.40;;;2.30;99.90;;;;;;5021735;28;20493;-52
2021/04/13 04:40:53;;;;;;;5.77;2.80;;;2.30;99.90;;;;;;5029716;28;20487;-56
2021/04/13 04:43:40;;;;;;;6.20;2.80;;;2.30;99.90;;;;;;5029906;28;20484;-52
2021/04/13 04:46:08;;;;;;;5.83;2.60;;;2.30;99.90;;;;;;5027069;28;20543;-52
2021/04/13 04:48:39;;;;;;;7.13;2.93;;;2.30;99.90;;;;;;5009438;28;21044;-55
2021/04/13 04:51:09;;;;;;;8.30;3.03;;;2.30;99.90;;;;;;5005825;28;20476;-52
2021/04/13 04:53:40;;;;;;;5.30;2.80;;;2.30;99.90;;;;;;5013078;28;20489;-54
2021/04/13 04:56:11;;;;;;;5.53;2.87;;;2.40;99.90;;;;;;5012183;28;20555;-54
2021/04/13 04:58:39;;;;;;;6.57;2.67;;;2.30;99.90;;;;;;5010686;28;20544;-54
2021/04/13 05:01:06;;;;;;;6.20;3.13;;;2.40;99.90;;;;;;5009611;28;20539;-55
2021/04/13 05:03:38;;;;;;;9.57;3.63;;;2.50;99.90;;;;;;4990309;28;20559;-55
2021/04/13 05:06:06;;;;;;;7.03;3.30;;;2.50;99.90;;;;;;4992962;28;20482;-53
2021/04/13 05:08:34;;;;;;;6.17;3.53;;;2.50;99.90;;;;;;5014082;28;21027;-53
2021/04/13 05:11:01;;;;;;;6.83;2.97;;;2.50;99.90;;;;;;5017328;28;20485;-52
2021/04/13 05:13:30;;;;;;;5.73;2.70;;;2.50;99.90;;;;;;5029110;28;20557;-56
2021/04/13 05:15:57;;;;;;;7.60;2.87;;;2.50;99.90;;;;;;5013203;28;20466;-53
2021/04/13 05:18:25;;;;;;;8.47;2.83;;;2.50;99.90;;;;;;4989723;28;20482;-53
2021/04/13 05:20:53;;;;;;;9.17;2.70;;;2.50;99.90;;;;;;4994941;28;20805;-55
2021/04/13 05:23:21;;;;;;;5.87;2.73;;;2.50;99.90;;;;;;5016618;28;21015;-51
2021/04/13 05:25:49;;;;;;;10.30;2.83;;;2.60;99.90;;;;;;5012275;28;20493;-54
2021/04/13 05:28:18;;;;;;;5.23;2.93;;;2.60;99.90;;;;;;5009799;28;20480;-51
2021/04/13 05:30:48;;;;;;;6.33;2.97;;;2.70;99.90;;;;;;5002771;28;20479;-52
2021/04/13 05:33:15;;;;;;;6.23;2.77;;;2.70;99.90;;;;;;5016807;28;20488;-55
2021/04/13 05:35:44;;;;;;;6.83;2.50;;;2.70;99.90;;;;;;5015066;28;20881;-51
2021/04/13 05:38:15;;;;;;;5.07;2.27;;;2.80;99.90;;;;;;5026967;28;21032;-51
2021/04/13 05:40:43;;;;;;;8.07;2.60;;;2.80;99.90;;;;;;5026371;28;20484;-53
2021/04/13 05:43:12;;;;;;;6.07;2.20;;;2.80;99.90;;;;;;5024850;28;20515;-50
2021/04/13 05:45:46;;;;;;;11.57;2.70;;;2.90;99.90;;;;;;5004463;28;20543;-52
2021/04/13 05:48:14;;;;;;;3.73;2.07;;;2.90;99.90;;;;;;5005578;28;20484;-51
2021/04/13 05:50:45;;;;;;;7.07;2.53;;;2.90;99.90;;;;;;5007919;28;20468;-53
2021/04/13 05:53:13;;;;;;;7.40;2.10;;;3.00;99.90;;;;;;5010482;28;20523;-53
2021/04/13 05:55:42;;;;;;;8.13;2.23;;;3.00;99.90;;;;;;5008999;28;20801;-52
2021/04/13 05:58:15;;;;;;;7.20;2.23;;;3.10;99.90;;;;;;5027597;28;20518;-50
2021/04/13 06:00:42;;;;;;;6.87;2.20;;;3.00;99.90;;;;;;5020502;28;20516;-51
2021/04/13 06:03:15;;;;;;;8.37;1.90;;;3.10;99.90;;;;;;5008644;28;20843;-52
2021/04/13 06:05:42;;;;;;;8.70;2.30;;;3.10;99.90;;;;;;5007953;28;20509;-55
2021/04/13 06:08:11;;;;;;;6.60;1.90;;;3.10;99.90;;;;;;5012484;28;20562;-52
2021/04/13 06:10:39;;;;;;;6.50;1.53;;;3.20;99.90;;;;;;5025186;28;20485;-55
2021/04/13 06:13:06;;;;;;;8.10;2.03;;;3.20;99.90;;;;;;5028630;28;20472;-54
2021/04/13 06:15:35;;;;;;;5.60;1.80;;;3.20;99.90;;;;;;5028691;28;20539;-55
2021/04/13 06:18:03;;;;;;;8.73;2.17;;;3.10;99.90;;;;;;5007446;28;20503;-52
2021/04/13 06:20:32;;;;;;;5.47;1.93;;;3.10;99.90;;;;;;5012102;28;20487;-55
2021/04/13 06:23:00;;;;;;;5.67;2.10;;;3.10;99.90;;;;;;5027971;28;20459;-54
2021/04/13 06:25:31;;;;;;;5.13;1.83;;;3.10;99.90;;;;;;5027392;28;20471;-56
2021/04/13 06:28:00;;;;;;;34.43;4.07;;;3.10;99.90;;;;;;5027590;28;20482;-53
2021/04/13 06:30:30;;;;;;;11.70;2.60;;;3.20;99.90;;;;;;5022075;28;20476;-52
2021/04/13 06:33:01;;;;;;;15.87;3.00;;;3.20;99.90;;;;;;5027455;28;20474;-51
2021/04/13 06:35:29;;;;;;;10.87;2.70;;;3.30;99.90;;;;;;5026663;28;20465;-52
2021/04/13 06:38:05;;;;;;;8.40;2.40;;;3.60;99.90;;;;;;5027343;28;20483;-52
2021/04/13 06:40:53;;;;;;;7.57;2.03;;;3.80;99.90;;;;;;5031489;28;20528;-53
2021/04/13 06:43:47;;;;;;;5.50;2.03;;;3.90;99.90;;;;;;5037177;28;20883;-56
2021/04/13 06:46:26;;;;;;;9.77;1.67;;;3.80;99.90;;;;;;5022559;28;20534;-53
2021/04/13 06:49:11;;;;;;;5.37;1.73;;;3.70;99.90;;;;;;5025470;28;21059;-52
2021/04/13 06:51:52;;;;;;;7.83;1.80;;;3.60;99.90;;;;;;5028051;28;20907;-54
2021/04/13 06:54:36;;;;;;;6.57;2.10;;;3.70;99.90;;;;;;5027595;28;20494;-54
2021/04/13 06:57:30;;;;;;;8.07;1.93;;;3.60;99.90;;;;;;5046764;28;20536;-55
2021/04/13 07:00:20;;;;;;;8.20;1.70;;;3.60;99.90;;;;;;5040141;28;20476;-51
2021/04/13 07:03:06;;;;;;;4.83;1.60;;;3.60;99.90;;;;;;5006790;28;20512;-52
2021/04/13 07:05:38;;;;;;;5.87;1.77;;;3.60;99.90;;;;;;5009663;28;20883;-53
2021/04/13 07:08:13;;;;;;;9.40;1.80;;;3.70;99.90;;;;;;5025370;28;20465;-53
2021/04/13 07:10:47;;;;;;;6.20;1.50;;;3.80;99.90;;;;;;5015732;28;20538;-51
2021/04/13 07:13:20;;;;;;;5.33;1.63;;;4.00;99.90;;;;;;5013197;28;21099;-54
2021/04/13 07:15:57;;;;;;;7.57;1.83;;;4.40;99.90;;;;;;5030438;28;21087;-52
2021/04/13 07:18:33;;;;;;;5.63;1.43;;;4.60;99.90;;;;;;5031696;28;20536;-52
2021/04/13 07:21:07;;;;;;;9.10;1.83;;;4.80;99.90;;;;;;5050100;28;20544;-54
2021/04/13 07:23:42;;;;;;;8.87;1.80;;;4.90;99.90;;;;;;5050534;28;20469;-53
2021/04/13 07:26:19;;;;;;;11.63;2.20;;;5.30;99.90;;;;;;5033739;28;20532;-51
2021/04/13 07:28:54;;;;;;;8.13;1.93;;;5.40;99.90;;;;;;5030777;28;20470;-53
2021/04/13 07:31:37;;;;;;;10.33;2.40;;;5.30;99.90;;;;;;5029413;28;20488;-51
2021/04/13 07:34:05;;;;;;;9.17;2.73;;;5.30;99.90;;;;;;5030682;28;20482;-53
2021/04/13 07:36:39;;;;;;;10.77;3.67;;;5.20;99.90;;;;;;5029987;28;20471;-52
2021/04/13 07:39:08;;;;;;;11.37;3.80;;;5.20;99.90;;;;;;5036994;28;20920;-55
2021/04/13 07:41:44;;;;;;;7.93;3.40;;;5.40;99.90;;;;;;5049787;28;20473;-53
2021/04/13 07:44:17;;;;;;;10.10;2.67;;;5.90;99.90;;;;;;5027666;28;20478;-56
2021/04/13 07:47:04;;;;;;;7.67;2.67;;;6.10;99.90;;;;;;5026208;28;20945;-52
2021/04/13 07:49:38;;;;;;;12.90;2.40;;;6.60;99.90;;;;;;5037437;28;20478;-55
2021/04/13 07:52:19;;;;;;;9.70;2.33;;;7.00;99.90;;;;;;5030377;28;20500;-53
2021/04/13 07:54:54;;;;;;;11.63;2.73;;;7.40;99.90;;;;;;5029458;28;20247;-51
2021/04/13 07:57:33;;;;;;;9.40;2.27;;;7.60;99.90;;;;;;5030269;28;20740;-54
2021/04/13 08:00:12;;;;;;;8.83;2.43;;;7.50;99.90;;;;;;5029886;28;20514;-50
2021/04/13 08:02:39;;;;;;;11.87;3.07;;;7.60;99.90;;;;;;5036261;28;20306;-54
2021/04/13 08:05:10;;;;;;;11.27;2.47;;;7.50;99.90;;;;;;5048059;28;20883;-52
2021/04/13 08:07:42;;;;;;;9.57;2.47;;;7.50;99.90;;;;;;5039604;28;20502;-52
2021/04/13 08:10:21;;;;;;;11.20;2.23;;;7.50;99.90;;;;;;5032402;28;20290;-54
2021/04/13 08:12:54;;;;;;;10.33;1.70;;;7.50;99.90;;;;;;5045898;28;20232;-51
2021/04/13 08:15:47;;;;;;;8.80;2.23;;;7.80;99.90;;;;;;5029051;28;20560;-51
2021/04/13 08:18:27;;;;;;;7.97;2.37;;;8.10;99.90;;;;;;5032972;28;20240;-50
2021/04/13 08:21:12;;;;;;;11.80;1.80;;;8.10;99.90;;;;;;5009111;28;20316;-50
2021/04/13 08:23:40;;;;;;;9.47;1.90;;;8.40;99.90;;;;;;5021591;28;20838;-51
2021/04/13 08:26:34;;;;;;;7.43;1.90;;;8.50;99.90;;;;;;5030773;28;20251;-51
2021/04/13 08:29:17;;;;;;;8.93;2.33;;;8.80;99.90;;;;;;5009835;28;20240;-51
2021/04/13 08:34:53;;;;;;;9.70;1.80;;;9.40;99.90;;;;;;5038049;28;20263;-53
2021/04/13 08:37:37;;;;;;;7.80;2.23;;;9.50;99.90;;;;;;5019601;28;20275;-54
2021/04/13 08:40:23;;;;;;;10.10;1.90;;;9.30;99.90;;;;;;5034178;28;20630;-53
2021/04/13 08:43:00;;;;;;;12.63;2.87;;;8.70;99.90;;;;;;5022288;28;20626;-53
2021/04/13 08:45:37;;;;;;;9.77;2.30;;;8.10;99.90;;;;;;5026254;28;20333;-50
2021/04/13 08:48:14;;;;;;;12.30;2.80;;;7.80;99.90;;;;;;5027878;28;20228;-50
2021/04/13 08:50:45;;;;;;;12.27;5.60;;;8.20;99.90;;;;;;5007409;28;20313;-55
2021/04/13 08:53:31;;;;;;;11.53;3.10;;;9.10;99.90;;;;;;5023599;28;20232;-54
2021/04/13 08:56:07;;;;;;;8.80;2.30;;;9.60;99.90;;;;;;5025901;28;20270;-55
2021/04/13 08:58:43;;;;;;;11.47;2.10;;;9.30;99.90;;;;;;5023889;28;20775;-52
2021/04/13 09:01:27;;;;;;;12.47;2.53;;;8.70;99.90;;;;;;5021443;28;20688;-53
2021/04/13 09:03:55;;;;;;;12.90;2.47;;;8.50;99.90;;;;;;5023486;28;20256;-50
2021/04/13 09:06:50;;;;;;;8.60;1.80;;;8.90;99.90;;;;;;5024803;28;20544;-53
2021/04/13 09:09:32;;;;;;;14.20;2.53;;;9.90;99.90;;;;;;5026203;28;20743;-51
2021/04/13 09:12:07;;;;;;;11.20;2.57;;;10.20;99.90;;;;;;5026287;28;20239;-53
2021/04/13 09:14:41;;;;;;;9.33;1.80;;;9.90;99.90;;;;;;5026269;28;20236;-51
2021/04/13 09:17:24;;;;;;;10.50;2.00;;;9.10;99.90;;;;;;5024363;28;20633;-51
2021/04/13 09:19:55;;;;;;;4.80;1.47;;;8.50;99.90;;;;;;5025810;28;20256;-50
2021/04/13 09:22:29;;;;;;;7.43;1.57;;;8.10;99.90;;;;;;5027709;28;20256;-52
2021/04/13 09:25:12;;;;;;;10.23;1.90;;;7.90;99.90;;;;;;5028453;28;20224;-50
2021/04/13 09:27:46;;;;;;;11.40;1.90;;;7.80;99.90;;;;;;5027154;28;20240;-50
2021/04/13 09:30:30;;;;;;;10.07;2.43;;;7.50;99.90;;;;;;5017844;28;20235;-51
2021/04/13 09:33:16;;;;;;;6.10;1.30;;;8.10;99.90;;;;;;5028075;28;20263;-54
2021/04/13 09:35:59;;;;;;;4.17;0.97;;;8.70;99.90;;;;;;5025382;28;21026;-52
2021/04/13 09:39:05;;;;;;;4.87;0.90;;;8.80;99.90;;;;;;5027184;28;20244;-51
2021/04/13 09:41:48;;;;;;;4.03;1.00;;;8.90;99.90;;;;;;5030496;28;21074;-54
2021/04/13 09:44:51;;;;;;;7.77;1.40;;;9.80;99.90;;;;;;5027856;28;20243;-51
2021/04/13 09:47:40;;;;;;;8.97;1.70;;;10.10;99.90;;;;;;5031261;28;20244;-53
2021/04/13 09:50:23;;;;;;;8.70;1.90;;;10.20;99.90;;;;;;5047251;28;20262;-55
2021/04/13 09:53:16;;;;;;;8.37;1.90;;;10.40;99.90;;;;;;5023048;28;20680;-51
2021/04/13 09:55:58;;;;;;;5.27;1.57;;;10.50;99.90;;;;;;5026275;28;20265;-51
2021/04/13 09:59:03;;;;;;;7.43;1.67;;;9.80;99.90;;;;;;5027433;28;20310;-50
2021/04/13 10:01:44;;;;;;;7.40;1.40;;;10.10;99.90;;;;;;5014293;28;20241;-54
2021/04/13 10:04:35;;;;;;;7.87;1.70;;;9.70;99.90;;;;;;5028064;28;20615;-50
2021/04/13 10:07:16;;;;;;;7.47;1.57;;;9.90;99.90;;;;;;5028175;28;20236;-51
2021/04/13 10:09:45;;;;;;;8.90;1.80;;;10.30;99.90;;;;;;5027645;28;20237;-51
2021/04/13 10:12:50;;;;;;;7.43;1.77;;;10.60;99.90;;;;;;5043044;28;20600;-53
2021/04/13 10:15:59;;;;;;;7.77;1.93;;;11.10;99.90;;;;;;5047218;28;20231;-53
2021/04/13 10:19:13;;;;;;;11.33;1.70;;;10.20;99.90;;;;;;5035743;28;20323;-54
2021/04/13 10:22:32;;;;;;;9.53;1.63;;;9.60;99.90;;;;;;5022997;28;20272;-51
2021/04/13 10:25:55;;;;;;;10.67;2.17;;;9.50;99.90;;;;;;5021024;28;20698;-51
2021/04/13 10:29:04;;;;;;;9.67;1.50;;;10.20;99.90;;;;;;5024312;28;20240;-52
2021/04/13 10:32:15;;;;;;;8.97;1.90;;;10.70;99.90;;;;;;5025320;28;20504;-54
2021/04/13 10:35:31;;;;;;;5.77;1.60;;;10.90;99.90;;;;;;5021842;28;20686;-53
2021/04/13 10:39:06;;;;;;;9.03;1.73;;;10.70;99.90;;;;;;5025785;28;20246;-52
2021/04/13 10:42:33;;;;;;;8.03;1.77;;;11.60;99.90;;;;;;5026187;28;21476;-54
2021/04/13 10:45:50;;;;;;;6.83;1.40;;;12.40;99.90;;;;;;5032062;28;20682;-53
2021/04/13 10:48:47;;;;;;;6.93;1.70;;;12.40;99.90;;;;;;5047042;28;20237;-50
2021/04/13 10:52:18;;;;;;;6.70;1.73;;;12.60;99.90;;;;;;5007330;28;20608;-51
2021/04/13 10:55:15;;;;;;;8.87;1.60;;;11.50;99.90;;;;;;5007533;28;20231;-54
2021/04/13 10:58:36;;;;;;;9.60;1.60;;;9.70;99.90;;;;;;5034802;28;20228;-52
2021/04/13 11:01:50;;;;;;;6.90;1.40;;;9.20;99.90;;;;;;5045669;28;20275;-51
2021/04/13 11:05:20;;;;;;;6.80;1.57;;;9.90;99.90;;;;;;5023390;28;20242;-51
2021/04/13 11:08:43;;;;;;;9.53;1.40;;;10.60;99.90;;;;;;5018999;28;20245;-51
2021/04/13 11:12:05;;;;;;;7.77;1.60;;;10.80;99.90;;;;;;4993343;28;20265;-52
2021/04/13 11:15:25;;;;;;;7.00;1.60;;;10.80;99.90;;;;;;5027446;28;20296;-52
2021/04/13 11:17:59;;;;;;;6.40;1.60;;;10.80;99.90;;;;;;5025254;28;20597;-53
2021/04/13 11:21:11;;;;;;;8.13;1.20;;;11.20;99.90;;;;;;5024439;28;20244;-53
2021/04/13 11:24:40;;;;;;;9.13;1.43;;;10.60;99.90;;;;;;5023844;28;20310;-53
2021/04/13 11:27:59;;;;;;;10.40;1.90;;;9.70;99.90;;;;;;5025419;28;20229;-54
2021/04/13 11:31:37;;;;;;;6.43;1.43;;;10.70;99.90;;;;;;5024452;28;20298;-52
2021/04/13 11:34:41;;;;;;;5.33;1.10;;;11.80;99.90;;;;;;4963828;28;20332;-51
2021/04/13 11:37:49;;;;;;;8.10;1.90;;;12.50;99.90;;;;;;5026316;28;20239;-52
2021/04/13 11:40:46;;;;;;;5.47;1.47;;;12.30;99.90;;;;;;5022678;28;20691;-51
2021/04/13 11:43:16;;;;;;;5.47;1.40;;;11.60;99.90;;;;;;5027400;28;20234;-52
2021/04/13 11:45:52;;;;;;;8.33;1.83;;;11.50;99.90;;;;;;5024530;28;20242;-52
2021/04/13 11:48:29;;;;;;;6.63;1.50;;;12.20;99.90;;;;;;5025398;28;20387;-51
2021/04/13 11:51:03;;;;;;;5.40;1.60;;;12.40;99.90;;;;;;5024918;28;20694;-54
2021/04/13 11:53:36;;;;;;;7.03;1.40;;;12.00;99.90;;;;;;5035491;28;20249;-51
2021/04/13 11:56:34;;;;;;;7.37;1.20;;;11.50;99.90;;;;;;5048602;28;20684;-55
2021/04/13 11:59:24;;;;;;;6.50;1.50;;;11.00;99.90;;;;;;5049013;28;20325;-54
2021/04/13 12:01:56;;;;;;;7.47;1.73;;;10.10;99.90;;;;;;5047808;28;20706;-53
2021/04/13 12:04:39;;;;;;;8.27;1.53;;;9.70;99.90;;;;;;5031180;28;20292;-53
2021/04/13 12:07:09;;;;;;;10.97;1.90;;;9.40;99.90;;;;;;5050331;28;20294;-54
2021/04/13 12:09:50;;;;;;;7.53;1.80;;;9.30;99.90;;;;;;5050405;28;20292;-53
2021/04/13 12:12:50;;;;;;;8.60;1.60;;;9.40;99.90;;;;;;5049902;28;20717;-54
2021/04/13 12:15:54;;;;;;;5.40;1.33;;;9.70;99.90;;;;;;5010046;28;20829;-54
2021/04/13 12:19:17;;;;;;;10.40;1.40;;;10.10;99.90;;;;;;5010504;28;20281;-54
2021/04/13 12:21:58;;;;;;;5.60;1.30;;;10.30;99.90;;;;;;4989725;28;20237;-52
2021/04/13 12:24:52;;;;;;;7.30;1.50;;;10.30;99.90;;;;;;5043705;28;20284;-52
2021/04/13 12:27:47;;;;;;;4.00;1.10;;;10.40;99.90;;;;;;5024552;28;20243;-52
2021/04/13 12:30:56;;;;;;;6.47;1.40;;;10.70;99.90;;;;;;5023847;28;20703;-55
2021/04/13 12:33:49;;;;;;;6.07;1.37;;;10.50;99.90;;;;;;5011046;28;20246;-52
2021/04/13 12:36:53;;;;;;;5.23;1.03;;;10.00;99.90;;;;;;5011467;28;20243;-55
2021/04/13 12:39:56;;;;;;;4.83;1.10;;;9.60;99.90;;;;;;5029517;28;20708;-51
2021/04/13 12:42:46;;;;;;;7.83;1.60;;;9.70;99.90;;;;;;5029338;28;20237;-53
2021/04/13 12:45:49;;;;;;;4.17;1.07;;;9.90;99.90;;;;;;5029416;28;20299;-52
2021/04/13 12:48:29;;;;;;;7.80;1.27;;;10.30;99.90;;;;;;5040744;28;20260;-53
2021/04/13 12:51:28;;;;;;;7.75;1.60;;;10.40;99.90;;;;;;2137732;28;10024119;-52
2021/04/13 12:54:17;;;;;;;6.03;1.13;;;10.50;99.90;;;;;;4317772;28;10001625;-52
2021/04/13 12:56:56;;;;;;;6.53;1.10;;;10.10;99.90;;;;;;5008397;28;20270;-53
2021/04/13 12:59:27;;;;;;;4.27;0.90;;;9.70;99.90;;;;;;5041496;28;20313;-51
2021/04/13 13:01:55;;;;;;;6.97;1.40;;;9.50;99.90;;;;;;5048168;28;20242;-53
2021/04/13 13:04:33;;;;;;;7.90;1.60;;;9.30;99.90;;;;;;5040519;28;20237;-54
2021/04/13 13:07:04;;;;;;;6.77;1.23;;;9.40;99.90;;;;;;5027291;28;20629;-55
2021/04/13 13:09:36;;;;;;;7.07;1.40;;;9.30;99.90;;;;;;5044938;28;20242;-52
2021/04/13 13:12:09;;;;;;;6.60;1.37;;;9.20;99.90;;;;;;5033729;28;20246;-51
2021/04/13 13:14:41;;;;;;;7.73;1.40;;;9.00;99.90;;;;;;5035373;28;20248;-52
2021/04/13 13:17:10;;;;;;;5.63;1.10;;;8.60;99.90;;;;;;5025976;28;20241;-51
2021/04/13 13:19:45;;;;;;;7.13;1.63;;;8.30;99.90;;;;;;5034094;28;20315;-54
2021/04/13 13:22:17;;;;;;;10.87;1.70;;;8.30;99.90;;;;;;5038401;28;20240;-52
2021/04/13 13:24:48;;;;;;;8.07;1.47;;;8.20;99.90;;;;;;5019417;28;20311;-55
2021/04/13 13:27:30;;;;;;;7.63;1.17;;;8.10;99.90;;;;;;5014660;28;20712;-53
2021/04/13 13:30:01;;;;;;;11.80;1.40;;;8.10;99.90;;;;;;5020939;28;20517;-53
2021/04/13 13:32:30;;;;;;;8.37;1.77;;;8.10;99.90;;;;;;5024725;28;20698;-55
2021/04/13 13:35:00;;;;;;;4.53;1.10;;;8.30;99.90;;;;;;5016764;28;20241;-54
2021/04/13 13:37:40;;;;;;;8.70;1.43;;;8.50;99.90;;;;;;5027092;28;20653;-52
2021/04/13 13:40:14;;;;;;;7.53;1.37;;;8.50;99.90;;;;;;5019369;28;20327;-53
2021/04/13 13:42:42;;;;;;;11.53;2.20;;;8.40;99.90;;;;;;5015384;28;20233;-52
2021/04/13 13:45:29;;;;;;;6.60;1.20;;;8.30;99.90;;;;;;5015807;28;20248;-51
2021/04/13 13:47:56;;;;;;;7.60;1.33;;;8.40;99.90;;;;;;5016489;28;20720;-54
2021/04/13 13:50:27;;;;;;;5.33;1.17;;;8.50;99.90;;;;;;5031044;28;20767;-53
2021/04/13 13:52:57;;;;;;;4.90;1.00;;;8.80;99.90;;;;;;5022503;28;20245;-54
2021/04/13 13:55:31;;;;;;;6.43;1.43;;;9.10;99.90;;;;;;5019424;28;20604;-51
2021/04/13 13:58:04;;;;;;;7.70;1.37;;;8.90;99.90;;;;;;5015797;28;20243;-52
2021/04/13 14:00:48;;;;;;;8.00;1.33;;;8.70;99.90;;;;;;5014860;28;20302;-52
2021/04/13 14:03:18;;;;;;;9.57;1.63;;;8.60;99.90;;;;;;5012840;28;20240;-53